createdAt,value
2019-02-09T00:00:24.117Z,8.80
2019-02-09T00:02:54.509Z,8.70
2019-02-09T00:05:24.721Z,8.70
2019-02-09T00:07:55.356Z,8.60
2019-02-09T00:10:25.914Z,8.50
2019-02-09T00:12:56.302Z,8.50
2019-02-09T00:15:26.447Z,8.40
2019-02-09T00:17:56.930Z,8.40
2019-02-09T00:20:27.120Z,8.40
2019-02-09T00:22:57.488Z,8.40
2019-02-09T00:25:28.152Z,8.30
2019-02-09T00:27:58.376Z,8.30
2019-02-09T00:30:28.559Z,8.30
2019-02-09T00:32:58.778Z,8.20
2019-02-09T00:35:29.031Z,8.10
2019-02-09T00:37:59.240Z,8.10
2019-02-09T00:40:29.996Z,8.10
2019-02-09T00:43:00.288Z,8.10
2019-02-09T00:45:30.857Z,8.10
2019-02-09T00:48:01.125Z,8.20
2019-02-09T00:50:31.322Z,8.30
2019-02-09T00:53:01.868Z,8.40
2019-02-09T00:55:33.548Z,8.50
2019-02-09T00:58:04.190Z,8.60
2019-02-09T01:00:34.488Z,8.60
2019-02-09T01:03:05.689Z,8.70
2019-02-09T01:05:39.088Z,8.70
2019-02-09T01:08:10.429Z,8.60
2019-02-09T01:10:40.896Z,8.50
2019-02-09T01:13:11.607Z,8.50
2019-02-09T01:15:42.125Z,8.50
2019-02-09T01:18:12.410Z,8.50
2019-02-09T01:20:42.596Z,8.50
2019-02-09T01:23:12.741Z,8.50
2019-02-09T01:25:42.931Z,8.50
2019-02-09T01:28:13.464Z,8.50
2019-02-09T01:30:44.207Z,8.60
2019-02-09T01:33:14.513Z,8.50
2019-02-09T01:35:44.686Z,8.50
2019-02-09T01:38:14.917Z,8.50
2019-02-09T01:40:45.423Z,8.50
2019-02-09T01:43:15.803Z,8.50
2019-02-09T01:45:46.613Z,8.50
2019-02-09T01:48:17.164Z,8.50
2019-02-09T01:50:47.719Z,8.60
2019-02-09T01:53:17.951Z,8.60
2019-02-09T01:55:48.187Z,8.60
2019-02-09T01:58:18.384Z,8.50
2019-02-09T02:00:48.627Z,8.50
2019-02-09T02:03:19.528Z,8.50
2019-02-09T02:05:49.701Z,8.60
2019-02-09T02:08:23.726Z,8.60
2019-02-09T02:10:54.287Z,8.60
2019-02-09T02:13:24.872Z,8.60
2019-02-09T02:15:55.130Z,8.60
2019-02-09T02:18:25.337Z,8.70
2019-02-09T02:20:55.591Z,8.80
2019-02-09T02:23:25.800Z,8.80
2019-02-09T02:25:55.995Z,8.80
2019-02-09T02:28:26.886Z,8.80
2019-02-09T02:30:57.119Z,8.90
2019-02-09T02:33:27.428Z,8.90
2019-02-09T02:35:57.958Z,8.90
2019-02-09T02:38:28.499Z,8.90
2019-02-09T02:40:58.686Z,8.80
2019-02-09T02:43:28.891Z,8.90
2019-02-09T02:45:59.492Z,8.90
2019-02-09T02:48:29.734Z,8.80
2019-02-09T02:50:59.960Z,8.70
2019-02-09T02:53:30.537Z,8.70
2019-02-09T02:56:00.720Z,8.60
2019-02-09T02:58:30.981Z,8.50
2019-02-09T03:01:01.202Z,8.50
2019-02-09T03:03:31.555Z,8.60
2019-02-09T03:06:01.719Z,8.70
2019-02-09T03:08:31.967Z,8.70
2019-02-09T03:11:02.528Z,8.70
2019-02-09T03:13:32.880Z,8.70
2019-02-09T03:16:03.378Z,8.70
2019-02-09T03:18:33.996Z,8.80
2019-02-09T03:21:04.285Z,8.80
2019-02-09T03:23:34.542Z,8.80
2019-02-09T03:26:04.749Z,8.70
2019-02-09T03:28:34.977Z,8.60
2019-02-09T03:31:05.175Z,8.40
2019-02-09T03:33:35.706Z,8.30
2019-02-09T03:36:06.205Z,8.20
2019-02-09T03:38:36.486Z,8.20
2019-02-09T03:41:06.860Z,8.20
2019-02-09T03:43:37.002Z,8.00
2019-02-09T03:46:07.164Z,8.00
2019-02-09T03:48:38.114Z,8.20
2019-02-09T03:51:08.724Z,8.20
2019-02-09T03:53:39.268Z,8.20
2019-02-09T03:56:09.813Z,8.20
2019-02-09T03:58:40.043Z,8.20
2019-02-09T04:01:10.307Z,8.20
2019-02-09T04:03:40.957Z,8.20
2019-02-09T04:06:11.178Z,8.30
2019-02-09T04:08:41.389Z,8.20
2019-02-09T04:11:11.540Z,8.10
2019-02-09T04:13:41.724Z,8.00
2019-02-09T04:16:11.887Z,8.00
2019-02-09T04:18:42.110Z,8.00
2019-02-09T04:21:12.607Z,8.00
2019-02-09T04:23:42.806Z,8.00
2019-02-09T04:26:13.036Z,7.90
2019-02-09T04:28:43.216Z,7.80
2019-02-09T04:31:13.706Z,7.80
2019-02-09T04:33:43.931Z,7.90
2019-02-09T04:36:14.262Z,8.00
2019-02-09T04:38:44.494Z,8.00
2019-02-09T04:41:14.995Z,8.10
2019-02-09T04:43:45.313Z,8.10
2019-02-09T04:46:15.492Z,8.00
2019-02-09T04:48:45.739Z,7.80
2019-02-09T04:51:15.906Z,7.70
2019-02-09T04:53:46.544Z,7.70
2019-02-09T04:56:16.727Z,7.70
2019-02-09T04:58:46.937Z,7.60
2019-02-09T05:01:17.451Z,7.60
2019-02-09T05:03:48.078Z,7.50
2019-02-09T05:06:18.257Z,7.50
2019-02-09T05:08:48.490Z,7.50
2019-02-09T05:11:18.663Z,7.50
2019-02-09T05:13:48.948Z,7.60
2019-02-09T05:16:19.126Z,7.50
2019-02-09T05:18:49.368Z,7.40
2019-02-09T05:21:20.359Z,7.30
2019-02-09T05:23:50.673Z,7.30
2019-02-09T05:26:20.918Z,7.30
2019-02-09T05:28:51.502Z,7.20
2019-02-09T05:31:23.440Z,7.10
2019-02-09T05:33:53.584Z,7.10
2019-02-09T05:36:23.754Z,7.10
2019-02-09T05:38:53.927Z,7.00
2019-02-09T05:41:24.154Z,6.90
2019-02-09T05:43:54.364Z,6.80
2019-02-09T05:46:24.573Z,6.90
2019-02-09T05:48:55.129Z,6.90
2019-02-09T05:51:25.328Z,6.90
2019-02-09T05:53:55.590Z,7.00
2019-02-09T05:56:25.852Z,7.00
2019-02-09T05:58:56.076Z,7.10
2019-02-09T06:01:32.205Z,7.20
2019-02-09T06:03:58.539Z,7.20
2019-02-09T06:06:28.728Z,7.10
2019-02-09T06:08:58.935Z,7.20
2019-02-09T06:11:29.509Z,7.10
2019-02-09T06:13:59.741Z,7.10
2019-02-09T06:16:30.805Z,7.10
2019-02-09T06:19:01.243Z,7.20
2019-02-09T06:21:31.368Z,7.20
2019-02-09T06:24:02.027Z,7.30
2019-02-09T06:26:32.209Z,7.20
2019-02-09T06:29:02.500Z,7.30
2019-02-09T06:31:40.260Z,7.40
2019-02-09T06:34:04.635Z,7.30
2019-02-09T06:36:34.853Z,7.30
2019-02-09T06:39:07.709Z,7.30
2019-02-09T06:41:38.290Z,7.40
2019-02-09T06:44:08.521Z,7.40
2019-02-09T06:46:38.682Z,7.30
2019-02-09T06:49:09.001Z,7.30
2019-02-09T06:51:39.391Z,7.20
2019-02-09T06:54:09.625Z,7.30
2019-02-09T06:56:40.133Z,7.40
2019-02-09T06:59:10.786Z,7.50
2019-02-09T07:01:48.335Z,7.50
2019-02-09T07:04:12.981Z,7.40
2019-02-09T07:06:43.525Z,7.40
2019-02-09T07:09:13.739Z,7.50
2019-02-09T07:11:43.933Z,7.70
2019-02-09T07:14:14.257Z,7.70
2019-02-09T07:16:44.432Z,7.70
2019-02-09T07:19:14.665Z,7.70
2019-02-09T07:21:45.161Z,7.80
2019-02-09T07:24:15.345Z,7.80
2019-02-09T07:26:45.629Z,7.70
2019-02-09T07:29:15.873Z,7.60
2019-02-09T07:31:46.403Z,7.50
2019-02-09T07:34:16.626Z,7.30
2019-02-09T07:36:46.844Z,7.20
2019-02-09T07:39:17.069Z,7.00
2019-02-09T07:41:47.823Z,6.80
2019-02-09T07:44:19.250Z,6.80
2019-02-09T07:46:49.528Z,6.80
2019-02-09T07:49:20.210Z,6.80
2019-02-09T07:51:50.392Z,6.80
2019-02-09T07:54:20.663Z,6.70
2019-02-09T07:56:51.182Z,6.70
2019-02-09T07:59:21.782Z,6.70
2019-02-09T08:01:51.988Z,6.70
2019-02-09T08:04:22.295Z,6.80
2019-02-09T08:06:52.512Z,6.90
2019-02-09T08:09:22.722Z,7.00
2019-02-09T08:11:53.437Z,7.20
2019-02-09T08:14:24.073Z,7.40
2019-02-09T08:16:54.631Z,7.50
2019-02-09T08:19:25.301Z,7.50
2019-02-09T08:21:55.993Z,7.70
2019-02-09T08:24:26.247Z,7.80
2019-02-09T08:26:56.457Z,7.90
2019-02-09T08:29:26.686Z,7.90
2019-02-09T08:31:57.441Z,7.90
2019-02-09T08:34:27.651Z,7.80
2019-02-09T08:36:57.882Z,7.60
2019-02-09T08:39:28.199Z,7.50
2019-02-09T08:41:58.381Z,7.60
2019-02-09T08:44:28.997Z,7.70
2019-02-09T08:46:59.247Z,7.80
2019-02-09T08:49:29.517Z,7.90
2019-02-09T08:52:00.091Z,7.90
2019-02-09T08:54:30.745Z,7.90
2019-02-09T08:57:01.008Z,7.90
2019-02-09T08:59:32.313Z,8.00
2019-02-09T09:02:02.671Z,8.10
2019-02-09T09:04:33.320Z,8.10
2019-02-09T09:07:03.750Z,8.10
2019-02-09T09:09:34.135Z,8.10
2019-02-09T09:12:04.852Z,8.00
2019-02-09T09:14:35.572Z,8.10
2019-02-09T09:17:06.213Z,8.10
2019-02-09T09:19:36.526Z,8.20
2019-02-09T09:22:07.202Z,8.20
2019-02-09T09:24:37.792Z,8.10
2019-02-09T09:27:08.044Z,8.10
2019-02-09T09:29:38.247Z,8.20
2019-02-09T09:32:08.431Z,8.20
2019-02-09T09:34:38.674Z,8.30
2019-02-09T09:37:08.887Z,8.60
2019-02-09T09:39:39.508Z,8.70
2019-02-09T09:42:09.724Z,8.70
2019-02-09T09:44:39.940Z,8.80
2019-02-09T09:47:10.149Z,8.80
2019-02-09T09:49:40.372Z,9.00
2019-02-09T09:52:10.849Z,9.20
2019-02-09T09:54:41.755Z,9.70
2019-02-09T09:57:11.990Z,10.20
2019-02-09T09:59:42.244Z,10.70
2019-02-09T10:02:12.458Z,10.60
2019-02-09T10:04:43.096Z,10.50
2019-02-09T10:07:13.330Z,10.70
2019-02-09T10:09:43.897Z,11.10
2019-02-09T10:12:14.122Z,11.10
2019-02-09T10:14:44.336Z,11.40
2019-02-09T10:17:14.713Z,11.20
2019-02-09T10:19:44.978Z,10.30
2019-02-09T10:22:15.630Z,9.70
2019-02-09T10:24:45.840Z,9.40
2019-02-09T10:27:16.395Z,9.50
2019-02-09T10:29:46.600Z,9.50
2019-02-09T10:32:16.850Z,9.40
2019-02-09T10:34:47.535Z,9.20
2019-02-09T10:37:17.838Z,9.00
2019-02-09T10:39:48.244Z,8.70
2019-02-09T10:42:18.474Z,8.50
2019-02-09T10:44:49.581Z,8.40
2019-02-09T10:47:20.379Z,8.40
2019-02-09T10:49:50.575Z,8.20
2019-02-09T10:52:20.793Z,8.00
2019-02-09T10:54:51.017Z,8.00
2019-02-09T10:57:21.864Z,7.90
2019-02-09T10:59:52.233Z,7.90
2019-02-09T11:02:22.808Z,8.00
2019-02-09T11:04:54.089Z,8.20
2019-02-09T11:07:24.297Z,8.40
2019-02-09T11:09:54.506Z,8.60
2019-02-09T11:12:24.849Z,8.80
2019-02-09T11:14:55.110Z,9.00
2019-02-09T11:17:25.308Z,9.30
2019-02-09T11:19:55.618Z,9.60
2019-02-09T11:22:26.162Z,9.70
2019-02-09T11:24:56.641Z,9.90
2019-02-09T11:27:26.878Z,10.10
2019-02-09T11:29:58.234Z,10.20
2019-02-09T11:32:28.485Z,10.50
2019-02-09T11:34:59.074Z,11.00
2019-02-09T11:37:29.320Z,11.20
2019-02-09T11:39:59.588Z,10.90
2019-02-09T11:42:29.736Z,10.70
2019-02-09T11:45:00.148Z,10.70
2019-02-09T11:47:30.853Z,10.90
2019-02-09T11:50:01.573Z,11.00
2019-02-09T11:52:32.170Z,11.10
2019-02-09T11:55:02.473Z,11.40
2019-02-09T11:57:32.977Z,11.40
2019-02-09T12:00:04.282Z,11.30
2019-02-09T12:02:34.510Z,11.40
2019-02-09T12:05:05.340Z,11.30
2019-02-09T12:07:35.574Z,11.40
2019-02-09T12:10:06.926Z,11.60
2019-02-09T12:12:37.138Z,12.00
2019-02-09T12:15:10.506Z,11.90
2019-02-09T12:17:40.668Z,11.80
2019-02-09T12:20:13.348Z,12.30
2019-02-09T12:22:43.684Z,12.20
2019-02-09T12:25:17.128Z,11.50
2019-02-09T12:27:47.536Z,10.90
2019-02-09T12:30:21.160Z,10.80
2019-02-09T12:32:51.301Z,10.80
2019-02-09T12:35:22.718Z,11.00
2019-02-09T12:37:53.688Z,11.20
2019-02-09T12:40:26.439Z,11.10
2019-02-09T12:42:56.781Z,11.00
2019-02-09T12:45:27.705Z,10.80
2019-02-09T12:47:57.978Z,10.60
2019-02-09T12:50:28.780Z,10.50
2019-02-09T12:52:58.968Z,10.40
2019-02-09T12:55:29.562Z,10.40
2019-02-09T12:57:59.793Z,10.50
2019-02-09T13:00:31.901Z,10.30
2019-02-09T13:03:12.518Z,9.90
2019-02-09T13:05:43.047Z,9.60
2019-02-09T13:08:13.552Z,9.70
2019-02-09T13:10:44.059Z,9.70
2019-02-09T13:13:14.238Z,9.90
2019-02-09T13:15:44.503Z,10.00
2019-02-09T13:18:14.619Z,10.20
2019-02-09T13:20:44.822Z,10.30
2019-02-09T13:23:15.022Z,10.40
2019-02-09T13:25:45.616Z,10.60
2019-02-09T13:28:16.602Z,10.80
2019-02-09T13:30:46.812Z,11.00
2019-02-09T13:33:17.040Z,11.00
2019-02-09T13:35:47.945Z,11.10
2019-02-09T13:38:18.162Z,11.10
2019-02-09T13:40:48.403Z,10.90
2019-02-09T13:43:19.086Z,10.60
2019-02-09T13:45:51.563Z,10.50
2019-02-09T13:48:21.677Z,10.50
2019-02-09T13:50:51.984Z,10.40
2019-02-09T13:53:22.275Z,10.40
2019-02-09T13:55:52.526Z,10.50
2019-02-09T13:58:23.150Z,10.70
2019-02-09T14:00:53.481Z,10.70
2019-02-09T14:03:23.880Z,10.60
2019-02-09T14:05:54.114Z,10.50
2019-02-09T14:08:24.324Z,10.50
2019-02-09T14:10:55.285Z,10.50
2019-02-09T14:13:25.477Z,10.50
2019-02-09T14:15:55.760Z,10.60
2019-02-09T14:18:25.960Z,10.70
2019-02-09T14:20:56.222Z,10.70
2019-02-09T14:23:27.397Z,10.70
2019-02-09T14:25:57.550Z,10.80
2019-02-09T14:28:29.197Z,10.80
2019-02-09T14:30:59.502Z,10.80
2019-02-09T14:33:29.730Z,10.80
2019-02-09T14:35:59.941Z,10.70
2019-02-09T14:38:30.538Z,10.70
2019-02-09T14:41:01.884Z,10.70
2019-02-09T14:43:32.489Z,10.70
2019-02-09T14:46:02.795Z,10.70
2019-02-09T14:48:33.004Z,10.70
2019-02-09T14:51:03.295Z,10.70
2019-02-09T14:53:33.510Z,10.70
2019-02-09T14:56:04.123Z,10.60
2019-02-09T14:58:34.333Z,10.70
2019-02-09T15:01:04.735Z,10.70
2019-02-09T15:03:35.325Z,10.70
2019-02-09T15:06:05.786Z,10.60
2019-02-09T15:08:37.375Z,10.50
2019-02-09T15:11:08.697Z,10.40
2019-02-09T15:13:39.255Z,10.40
2019-02-09T15:16:36.559Z,10.30
2019-02-09T15:19:07.055Z,10.20
2019-02-09T15:21:37.283Z,10.20
2019-02-09T15:24:07.483Z,10.10
2019-02-09T15:26:37.807Z,10.10
2019-02-09T15:29:08.001Z,10.10
2019-02-09T15:31:38.510Z,10.10
2019-02-09T15:34:10.517Z,10.10
2019-02-09T15:36:40.873Z,10.10
2019-02-09T15:39:12.134Z,10.10
2019-02-09T15:41:42.423Z,10.00
2019-02-09T15:44:12.708Z,10.00
2019-02-09T15:46:43.383Z,10.00
2019-02-09T15:49:13.697Z,10.00
2019-02-09T15:51:44.009Z,10.00
2019-02-09T15:54:14.461Z,10.00
2019-02-09T15:56:44.720Z,10.00
2019-02-09T15:59:15.642Z,9.90
2019-02-09T16:01:46.368Z,10.00
2019-02-09T16:04:18.011Z,9.90
2019-02-09T16:06:48.635Z,9.90
2019-02-09T16:09:18.832Z,9.90
2019-02-09T16:11:49.134Z,9.90
2019-02-09T16:14:19.331Z,9.90
2019-02-09T16:16:49.631Z,9.80
2019-02-09T16:19:20.281Z,9.80
2019-02-09T16:21:50.511Z,9.70
2019-02-09T16:24:21.431Z,9.60
2019-02-09T16:26:51.675Z,9.50
2019-02-09T16:29:21.913Z,9.50
2019-02-09T16:31:52.189Z,9.40
2019-02-09T16:34:25.442Z,9.40
2019-02-09T16:36:55.484Z,9.40
2019-02-09T16:39:25.678Z,9.30
2019-02-09T16:41:55.926Z,9.30
2019-02-09T16:44:26.197Z,9.30
2019-02-09T16:46:57.264Z,9.40
2019-02-09T16:49:27.530Z,9.40
2019-02-09T16:51:57.884Z,9.40
2019-02-09T16:54:28.085Z,9.30
2019-02-09T16:56:58.339Z,9.20
2019-02-09T16:59:28.587Z,9.20
2019-02-09T17:01:58.849Z,9.20
2019-02-09T17:04:33.311Z,9.10
2019-02-09T17:07:01.299Z,9.00
2019-02-09T17:09:31.710Z,9.00
2019-02-09T17:12:02.290Z,9.10
2019-02-09T17:14:32.626Z,8.90
2019-02-09T17:17:03.313Z,8.90
2019-02-09T17:19:34.015Z,8.90
2019-02-09T17:22:04.837Z,8.90
2019-02-09T17:24:35.554Z,8.80
2019-02-09T17:27:06.118Z,8.90
2019-02-09T17:29:36.381Z,8.90
2019-02-09T17:32:06.613Z,9.00
2019-02-09T17:34:40.897Z,8.90
2019-02-09T17:37:09.008Z,8.90
2019-02-09T17:39:39.265Z,9.00
2019-02-09T17:42:09.833Z,9.00
2019-02-09T17:44:40.797Z,8.90
2019-02-09T17:47:11.705Z,8.90
2019-02-09T17:49:41.895Z,9.00
2019-02-09T17:52:12.114Z,9.00
2019-02-09T17:54:42.307Z,9.00
2019-02-09T17:57:12.601Z,9.00
2019-02-09T17:59:43.117Z,9.00
2019-02-09T18:02:14.229Z,9.00
2019-02-09T18:04:48.585Z,9.00
2019-02-09T18:07:16.533Z,9.00
2019-02-09T18:09:47.485Z,9.00
2019-02-09T18:12:17.721Z,8.90
2019-02-09T18:14:47.931Z,8.90
2019-02-09T18:17:18.150Z,8.90
2019-02-09T18:19:48.502Z,8.90
2019-02-09T18:22:18.708Z,8.90
2019-02-09T18:24:48.960Z,9.00
2019-02-09T18:27:19.301Z,9.00
2019-02-09T18:29:49.495Z,8.90
2019-02-09T18:32:19.828Z,8.90
2019-02-09T18:34:55.951Z,8.90
2019-02-09T18:37:21.989Z,8.80
2019-02-09T18:39:52.831Z,8.80
2019-02-09T18:42:23.256Z,8.70
2019-02-09T18:44:53.884Z,8.70
2019-02-09T18:47:24.616Z,8.70
2019-02-09T18:49:54.826Z,8.80
2019-02-09T18:52:25.132Z,8.80
2019-02-09T18:54:55.731Z,8.80
2019-02-09T18:57:26.003Z,8.80
2019-02-09T18:59:56.292Z,8.90
2019-02-09T19:02:26.606Z,8.90
2019-02-09T19:05:04.210Z,8.80
2019-02-09T19:07:29.605Z,8.80
2019-02-09T19:09:59.929Z,8.80
2019-02-09T19:12:30.166Z,8.80
2019-02-09T19:15:00.749Z,8.80
2019-02-09T19:17:31.154Z,8.80
2019-02-09T19:20:01.410Z,8.80
2019-02-09T19:22:31.630Z,8.80
2019-02-09T19:25:02.264Z,8.80
2019-02-09T19:27:32.848Z,8.70
2019-02-09T19:30:03.021Z,8.70
2019-02-09T19:32:33.388Z,8.70
2019-02-09T19:35:03.700Z,8.60
2019-02-09T19:37:33.992Z,8.60
2019-02-09T19:40:05.565Z,8.60
2019-02-09T19:42:36.649Z,8.60
2019-02-09T19:45:10.110Z,8.70
2019-02-09T19:47:40.363Z,8.70
2019-02-09T19:50:11.830Z,8.60
2019-02-09T19:52:42.140Z,8.60
2019-02-09T19:55:15.613Z,8.70
2019-02-09T19:57:46.280Z,8.60
2019-02-09T20:00:25.025Z,8.60
2019-02-09T20:02:55.968Z,8.60
2019-02-09T20:05:26.170Z,8.70
2019-02-09T20:07:56.763Z,8.80
2019-02-09T20:10:32.561Z,8.80
2019-02-09T20:13:02.963Z,8.70
2019-02-09T20:15:33.353Z,8.80
2019-02-09T20:18:03.989Z,8.80
2019-02-09T20:20:34.694Z,8.70
2019-02-09T20:23:05.685Z,8.60
2019-02-09T20:25:37.079Z,8.60
2019-02-09T20:28:07.657Z,8.50
2019-02-09T20:30:38.268Z,8.50
2019-02-09T20:33:08.787Z,8.50
2019-02-09T20:35:39.003Z,8.60
2019-02-09T20:38:10.295Z,8.60
2019-02-09T20:40:43.388Z,8.60
2019-02-09T20:43:15.541Z,8.60
2019-02-09T20:45:45.821Z,8.70
2019-02-09T20:48:16.436Z,8.70
2019-02-09T20:50:46.890Z,8.70
2019-02-09T20:53:17.113Z,8.80
2019-02-09T20:55:48.409Z,8.90
2019-02-09T20:58:19.236Z,8.90
2019-02-09T21:00:49.494Z,8.90
2019-02-09T21:03:19.720Z,9.00
2019-02-09T21:05:50.227Z,9.00
2019-02-09T21:08:20.463Z,9.00
2019-02-09T21:10:50.732Z,9.00
2019-02-09T21:13:20.955Z,9.00
2019-02-09T21:15:51.528Z,9.00
2019-02-09T21:18:21.764Z,8.90
2019-02-09T21:20:55.974Z,8.90
2019-02-09T21:23:26.200Z,8.90
2019-02-09T21:25:56.856Z,8.90
2019-02-09T21:28:27.101Z,8.90
2019-02-09T21:30:57.271Z,8.90
2019-02-09T21:33:27.527Z,8.90
2019-02-09T21:35:57.716Z,8.90
2019-02-09T21:38:27.927Z,8.90
2019-02-09T21:40:58.151Z,8.90
2019-02-09T21:43:28.416Z,8.90
2019-02-09T21:45:58.629Z,8.90
2019-02-09T21:48:30.138Z,8.90
2019-02-09T21:51:00.390Z,9.00
2019-02-09T21:53:30.669Z,9.00
2019-02-09T21:56:01.272Z,9.00
2019-02-09T21:58:31.695Z,9.00
2019-02-09T22:01:01.934Z,8.90
2019-02-09T22:03:33.302Z,8.90
2019-02-09T22:06:03.911Z,8.90
2019-02-09T22:08:34.558Z,8.90
2019-02-09T22:11:05.377Z,8.90
2019-02-09T22:13:35.655Z,8.90
2019-02-09T22:16:06.574Z,8.90
2019-02-09T22:18:36.893Z,8.90
2019-02-09T22:21:07.791Z,8.90
2019-02-09T22:23:38.045Z,8.90
2019-02-09T22:26:13.110Z,8.90
2019-02-09T22:28:40.620Z,8.90
2019-02-09T22:31:11.227Z,8.90
2019-02-09T22:33:41.854Z,8.80
2019-02-09T22:36:12.041Z,8.80
2019-02-09T22:38:43.151Z,8.80
2019-02-09T22:41:17.441Z,8.90
2019-02-09T22:43:47.783Z,8.80
2019-02-09T22:46:18.039Z,8.80
2019-02-09T22:48:48.701Z,8.80
2019-02-09T22:51:18.889Z,8.80
2019-02-09T22:53:49.490Z,8.80
2019-02-09T22:56:20.128Z,8.80
2019-02-09T22:58:50.383Z,8.80
2019-02-09T23:01:44.139Z,8.80
2019-02-09T23:04:40.893Z,8.80
2019-02-09T23:07:14.129Z,8.90
2019-02-09T23:09:44.389Z,8.90
2019-02-09T23:12:14.590Z,8.80
2019-02-09T23:14:45.202Z,8.90
2019-02-09T23:17:15.395Z,8.90
2019-02-09T23:19:45.594Z,8.90
2019-02-09T23:22:16.151Z,8.90
2019-02-09T23:24:46.443Z,8.80
2019-02-09T23:27:16.627Z,8.80
2019-02-09T23:29:46.815Z,8.80
2019-02-09T23:32:17.348Z,8.80
2019-02-09T23:34:47.598Z,8.80
2019-02-09T23:37:18.111Z,8.80
2019-02-09T23:39:48.352Z,8.80
2019-02-09T23:42:18.606Z,8.90
2019-02-09T23:44:49.166Z,8.80
2019-02-09T23:47:19.441Z,8.90
2019-02-09T23:49:49.661Z,8.90
2019-02-09T23:52:19.835Z,8.90
2019-02-09T23:54:50.436Z,8.90
2019-02-09T23:57:20.628Z,8.90
2019-02-09T23:59:50.888Z,8.90
